sensor_id;sensor_type;location;lat;lon;timestamp;P1;durP1;ratioP1;P2;durP2;ratioP2
64291;SDS011;50628;51.008;13.658;2023-04-01T00:03:44;1.33;;;0.60;;
64291;SDS011;50628;51.008;13.658;2023-04-01T00:08:47;4.60;;;0.83;;
64291;SDS011;50628;51.008;13.658;2023-04-01T00:13:49;5.50;;;1.23;;
64291;SDS011;50628;51.008;13.658;2023-04-01T00:18:51;5.07;;;0.90;;
64291;SDS011;50628;51.008;13.658;2023-04-01T00:23:54;4.77;;;0.77;;
64291;SDS011;50628;51.008;13.658;2023-04-01T00:28:56;1.93;;;0.50;;
64291;SDS011;50628;51.008;13.658;2023-04-01T00:33:59;4.77;;;1.33;;
64291;SDS011;50628;51.008;13.658;2023-04-01T00:39:03;2.87;;;1.10;;
64291;SDS011;50628;51.008;13.658;2023-04-01T00:44:11;4.17;;;1.80;;
64291;SDS011;50628;51.008;13.658;2023-04-01T00:49:19;4.70;;;0.97;;
64291;SDS011;50628;51.008;13.658;2023-04-01T00:54:25;4.27;;;0.60;;
64291;SDS011;50628;51.008;13.658;2023-04-01T00:59:31;4.80;;;1.07;;
64291;SDS011;50628;51.008;13.658;2023-04-01T01:04:35;3.07;;;0.60;;
64291;SDS011;50628;51.008;13.658;2023-04-01T01:09:41;3.83;;;0.47;;
64291;SDS011;50628;51.008;13.658;2023-04-01T01:14:50;1.03;;;0.40;;
64291;SDS011;50628;51.008;13.658;2023-04-01T01:20:01;5.10;;;0.90;;
64291;SDS011;50628;51.008;13.658;2023-04-01T01:25:19;1.47;;;0.50;;
64291;SDS011;50628;51.008;13.658;2023-04-01T01:30:37;6.93;;;0.73;;
64291;SDS011;50628;51.008;13.658;2023-04-01T01:35:46;2.63;;;0.57;;
64291;SDS011;50628;51.008;13.658;2023-04-01T01:40:53;2.17;;;0.60;;
64291;SDS011;50628;51.008;13.658;2023-04-01T01:45:59;3.93;;;1.07;;
64291;SDS011;50628;51.008;13.658;2023-04-01T01:51:06;4.33;;;0.97;;
64291;SDS011;50628;51.008;13.658;2023-04-01T01:56:09;4.63;;;1.00;;
64291;SDS011;50628;51.008;13.658;2023-04-01T02:01:14;5.13;;;1.77;;
64291;SDS011;50628;51.008;13.658;2023-04-01T02:06:22;6.87;;;1.67;;
64291;SDS011;50628;51.008;13.658;2023-04-01T02:11:27;6.23;;;1.40;;
64291;SDS011;50628;51.008;13.658;2023-04-01T02:16:32;9.67;;;1.20;;
64291;SDS011;50628;51.008;13.658;2023-04-01T02:21:38;7.00;;;1.10;;
64291;SDS011;50628;51.008;13.658;2023-04-01T02:26:42;3.67;;;0.77;;
64291;SDS011;50628;51.008;13.658;2023-04-01T02:31:46;2.77;;;0.50;;
64291;SDS011;50628;51.008;13.658;2023-04-01T02:36:51;14.63;;;4.30;;
64291;SDS011;50628;51.008;13.658;2023-04-01T02:41:53;5.77;;;1.27;;
64291;SDS011;50628;51.008;13.658;2023-04-01T02:46:55;10.10;;;2.07;;
64291;SDS011;50628;51.008;13.658;2023-04-01T02:51:58;5.07;;;1.53;;
64291;SDS011;50628;51.008;13.658;2023-04-01T02:57:00;6.37;;;1.10;;
64291;SDS011;50628;51.008;13.658;2023-04-01T03:02:03;6.93;;;1.70;;
64291;SDS011;50628;51.008;13.658;2023-04-01T03:07:06;2.67;;;0.80;;
64291;SDS011;50628;51.008;13.658;2023-04-01T03:12:08;5.50;;;1.37;;
64291;SDS011;50628;51.008;13.658;2023-04-01T03:17:23;7.83;;;1.30;;
64291;SDS011;50628;51.008;13.658;2023-04-01T03:22:26;5.63;;;0.93;;
64291;SDS011;50628;51.008;13.658;2023-04-01T03:27:28;7.37;;;1.40;;
64291;SDS011;50628;51.008;13.658;2023-04-01T03:32:30;3.73;;;1.00;;
64291;SDS011;50628;51.008;13.658;2023-04-01T03:37:34;5.33;;;1.47;;
64291;SDS011;50628;51.008;13.658;2023-04-01T03:42:35;6.60;;;1.00;;
64291;SDS011;50628;51.008;13.658;2023-04-01T03:47:37;3.93;;;0.73;;
64291;SDS011;50628;51.008;13.658;2023-04-01T03:52:41;4.30;;;0.90;;
64291;SDS011;50628;51.008;13.658;2023-04-01T03:57:43;4.10;;;0.50;;
64291;SDS011;50628;51.008;13.658;2023-04-01T04:02:52;5.13;;;1.20;;
64291;SDS011;50628;51.008;13.658;2023-04-01T04:08:01;4.83;;;1.47;;
64291;SDS011;50628;51.008;13.658;2023-04-01T04:13:05;9.50;;;1.63;;
64291;SDS011;50628;51.008;13.658;2023-04-01T04:18:11;7.33;;;1.00;;
64291;SDS011;50628;51.008;13.658;2023-04-01T04:23:14;6.50;;;1.10;;
64291;SDS011;50628;51.008;13.658;2023-04-01T04:28:16;6.20;;;0.77;;
64291;SDS011;50628;51.008;13.658;2023-04-01T04:33:20;4.43;;;0.70;;
64291;SDS011;50628;51.008;13.658;2023-04-01T04:38:24;5.23;;;0.90;;
64291;SDS011;50628;51.008;13.658;2023-04-01T04:43:26;4.37;;;0.40;;
64291;SDS011;50628;51.008;13.658;2023-04-01T04:48:30;4.67;;;1.13;;
64291;SDS011;50628;51.008;13.658;2023-04-01T04:53:33;2.73;;;0.60;;
64291;SDS011;50628;51.008;13.658;2023-04-01T04:58:35;1.93;;;0.50;;
64291;SDS011;50628;51.008;13.658;2023-04-01T05:03:38;4.83;;;1.03;;
64291;SDS011;50628;51.008;13.658;2023-04-01T05:08:42;6.30;;;1.63;;
64291;SDS011;50628;51.008;13.658;2023-04-01T05:13:45;3.53;;;0.80;;
64291;SDS011;50628;51.008;13.658;2023-04-01T05:18:48;2.27;;;0.40;;
64291;SDS011;50628;51.008;13.658;2023-04-01T05:23:51;2.43;;;0.50;;
64291;SDS011;50628;51.008;13.658;2023-04-01T05:28:54;4.43;;;0.73;;
64291;SDS011;50628;51.008;13.658;2023-04-01T05:33:56;7.67;;;2.13;;
64291;SDS011;50628;51.008;13.658;2023-04-01T05:38:59;5.97;;;3.00;;
64291;SDS011;50628;51.008;13.658;2023-04-01T05:44:02;4.07;;;1.30;;
64291;SDS011;50628;51.008;13.658;2023-04-01T05:49:24;9.40;;;2.67;;
64291;SDS011;50628;51.008;13.658;2023-04-01T05:54:27;3.23;;;0.70;;
64291;SDS011;50628;51.008;13.658;2023-04-01T05:59:29;3.00;;;0.70;;
64291;SDS011;50628;51.008;13.658;2023-04-01T06:04:32;3.83;;;1.10;;
64291;SDS011;50628;51.008;13.658;2023-04-01T06:09:40;1.67;;;0.63;;
64291;SDS011;50628;51.008;13.658;2023-04-01T06:14:43;5.77;;;1.23;;
64291;SDS011;50628;51.008;13.658;2023-04-01T06:19:57;4.77;;;1.87;;
64291;SDS011;50628;51.008;13.658;2023-04-01T06:25:20;7.33;;;2.73;;
64291;SDS011;50628;51.008;13.658;2023-04-01T06:30:35;7.30;;;1.93;;
64291;SDS011;50628;51.008;13.658;2023-04-01T06:35:51;7.30;;;2.13;;
64291;SDS011;50628;51.008;13.658;2023-04-01T06:41:13;2.67;;;0.70;;
64291;SDS011;50628;51.008;13.658;2023-04-01T06:46:34;6.63;;;0.70;;
64291;SDS011;50628;51.008;13.658;2023-04-01T06:52:06;1.40;;;0.40;;
64291;SDS011;50628;51.008;13.658;2023-04-01T06:57:38;5.60;;;1.33;;
64291;SDS011;50628;51.008;13.658;2023-04-01T07:02:45;7.07;;;1.70;;
64291;SDS011;50628;51.008;13.658;2023-04-01T07:07:54;4.37;;;1.30;;
64291;SDS011;50628;51.008;13.658;2023-04-01T07:13:02;6.80;;;0.90;;
64291;SDS011;50628;51.008;13.658;2023-04-01T07:18:37;3.17;;;0.70;;
64291;SDS011;50628;51.008;13.658;2023-04-01T07:23:44;3.10;;;0.73;;
64291;SDS011;50628;51.008;13.658;2023-04-01T07:29:04;5.40;;;1.10;;
64291;SDS011;50628;51.008;13.658;2023-04-01T07:34:27;3.83;;;0.73;;
64291;SDS011;50628;51.008;13.658;2023-04-01T07:39:35;7.57;;;1.40;;
64291;SDS011;50628;51.008;13.658;2023-04-01T07:44:57;3.30;;;0.57;;
64291;SDS011;50628;51.008;13.658;2023-04-01T07:50:08;6.33;;;1.17;;
64291;SDS011;50628;51.008;13.658;2023-04-01T07:55:18;3.20;;;0.60;;
64291;SDS011;50628;51.008;13.658;2023-04-01T08:00:29;4.37;;;0.97;;
64291;SDS011;50628;51.008;13.658;2023-04-01T08:05:47;3.93;;;0.80;;
64291;SDS011;50628;51.008;13.658;2023-04-01T08:10:55;1.50;;;0.30;;
64291;SDS011;50628;51.008;13.658;2023-04-01T08:16:26;5.53;;;1.00;;
64291;SDS011;50628;51.008;13.658;2023-04-01T08:21:39;4.30;;;0.70;;
64291;SDS011;50628;51.008;13.658;2023-04-01T08:26:46;4.63;;;0.67;;
64291;SDS011;50628;51.008;13.658;2023-04-01T08:31:55;0.60;;;0.30;;
64291;SDS011;50628;51.008;13.658;2023-04-01T08:37:02;4.00;;;0.93;;
64291;SDS011;50628;51.008;13.658;2023-04-01T08:42:15;1.80;;;0.43;;
64291;SDS011;50628;51.008;13.658;2023-04-01T08:47:48;5.40;;;0.67;;
64291;SDS011;50628;51.008;13.658;2023-04-01T08:52:59;3.30;;;0.43;;
64291;SDS011;50628;51.008;13.658;2023-04-01T08:58:18;5.60;;;0.53;;
64291;SDS011;50628;51.008;13.658;2023-04-01T09:04:04;5.67;;;1.97;;
64291;SDS011;50628;51.008;13.658;2023-04-01T09:09:37;2.47;;;0.70;;
64291;SDS011;50628;51.008;13.658;2023-04-01T09:15:26;6.77;;;1.03;;
64291;SDS011;50628;51.008;13.658;2023-04-01T09:21:04;4.47;;;1.40;;
64291;SDS011;50628;51.008;13.658;2023-04-01T09:26:23;2.17;;;0.50;;
64291;SDS011;50628;51.008;13.658;2023-04-01T09:31:44;2.83;;;0.47;;
64291;SDS011;50628;51.008;13.658;2023-04-01T09:37:21;4.63;;;1.33;;
64291;SDS011;50628;51.008;13.658;2023-04-01T09:42:45;4.87;;;0.43;;
64291;SDS011;50628;51.008;13.658;2023-04-01T09:48:03;5.10;;;1.10;;
64291;SDS011;50628;51.008;13.658;2023-04-01T10:33:54;8.47;;;3.87;;
64291;SDS011;50628;51.008;13.658;2023-04-01T10:39:19;4.47;;;0.97;;
64291;SDS011;50628;51.008;13.658;2023-04-01T10:51:03;12.10;;;6.43;;
64291;SDS011;50628;51.008;13.658;2023-04-01T10:56:20;10.83;;;6.53;;
64291;SDS011;50628;51.008;13.658;2023-04-01T11:01:58;2.10;;;0.30;;
64291;SDS011;50628;51.008;13.658;2023-04-01T11:13:52;7.57;;;2.80;;
64291;SDS011;50628;51.008;13.658;2023-04-01T11:19:35;4.93;;;2.37;;
64291;SDS011;50628;51.008;13.658;2023-04-01T11:24:59;2.03;;;0.80;;
64291;SDS011;50628;51.008;13.658;2023-04-01T11:30:55;3.87;;;0.73;;
64291;SDS011;50628;51.008;13.658;2023-04-01T11:36:08;6.40;;;1.57;;
64291;SDS011;50628;51.008;13.658;2023-04-01T11:41:30;1.63;;;0.53;;
64291;SDS011;50628;51.008;13.658;2023-04-01T11:47:24;2.47;;;0.30;;
64291;SDS011;50628;51.008;13.658;2023-04-01T11:52:47;0.60;;;0.30;;
64291;SDS011;50628;51.008;13.658;2023-04-01T11:58:10;1.60;;;0.30;;
64291;SDS011;50628;51.008;13.658;2023-04-01T12:03:41;1.47;;;0.23;;
64291;SDS011;50628;51.008;13.658;2023-04-01T12:08:53;0.77;;;0.20;;
64291;SDS011;50628;51.008;13.658;2023-04-01T12:14:04;4.47;;;0.90;;
64291;SDS011;50628;51.008;13.658;2023-04-01T12:19:14;0.77;;;0.30;;
64291;SDS011;50628;51.008;13.658;2023-04-01T12:35:39;2.80;;;0.90;;
64291;SDS011;50628;51.008;13.658;2023-04-01T12:40:58;4.57;;;1.73;;
64291;SDS011;50628;51.008;13.658;2023-04-01T12:46:11;3.93;;;1.20;;
64291;SDS011;50628;51.008;13.658;2023-04-01T12:51:30;2.53;;;0.70;;
64291;SDS011;50628;51.008;13.658;2023-04-01T12:56:53;0.50;;;0.10;;
64291;SDS011;50628;51.008;13.658;2023-04-01T13:02:11;2.53;;;1.10;;
64291;SDS011;50628;51.008;13.658;2023-04-01T13:07:24;2.23;;;0.87;;
64291;SDS011;50628;51.008;13.658;2023-04-01T13:12:36;3.27;;;0.80;;
64291;SDS011;50628;51.008;13.658;2023-04-01T13:17:48;5.30;;;0.90;;
64291;SDS011;50628;51.008;13.658;2023-04-01T13:22:59;0.23;;;0.10;;
64291;SDS011;50628;51.008;13.658;2023-04-01T13:28:13;2.40;;;0.30;;
64291;SDS011;50628;51.008;13.658;2023-04-01T13:33:21;0.47;;;0.20;;
64291;SDS011;50628;51.008;13.658;2023-04-01T13:38:38;3.00;;;0.80;;
64291;SDS011;50628;51.008;13.658;2023-04-01T13:44:02;1.33;;;0.30;;
64291;SDS011;50628;51.008;13.658;2023-04-01T13:49:37;0.20;;;0.10;;
64291;SDS011;50628;51.008;13.658;2023-04-01T13:55:10;0.70;;;0.50;;
64291;SDS011;50628;51.008;13.658;2023-04-01T14:00:38;0.30;;;0.20;;
64291;SDS011;50628;51.008;13.658;2023-04-01T14:05:54;1.47;;;0.50;;
64291;SDS011;50628;51.008;13.658;2023-04-01T14:11:10;1.57;;;0.43;;
64291;SDS011;50628;51.008;13.658;2023-04-01T14:16:25;0.83;;;0.40;;
64291;SDS011;50628;51.008;13.658;2023-04-01T14:21:46;1.40;;;0.50;;
64291;SDS011;50628;51.008;13.658;2023-04-01T14:27:00;0.10;;;0.10;;
64291;SDS011;50628;51.008;13.658;2023-04-01T14:32:24;4.50;;;0.60;;
64291;SDS011;50628;51.008;13.658;2023-04-01T14:37:44;0.50;;;0.20;;
64291;SDS011;50628;51.008;13.658;2023-04-01T14:48:53;1.00;;;0.40;;
64291;SDS011;50628;51.008;13.658;2023-04-01T14:54:00;2.63;;;0.47;;
64291;SDS011;50628;51.008;13.658;2023-04-01T14:59:10;1.70;;;0.40;;
64291;SDS011;50628;51.008;13.658;2023-04-01T15:04:32;1.30;;;0.20;;
64291;SDS011;50628;51.008;13.658;2023-04-01T15:09:44;0.80;;;0.20;;
64291;SDS011;50628;51.008;13.658;2023-04-01T15:15:04;0.67;;;0.20;;
64291;SDS011;50628;51.008;13.658;2023-04-01T15:20:35;0.43;;;0.33;;
64291;SDS011;50628;51.008;13.658;2023-04-01T15:25:53;2.77;;;0.63;;
64291;SDS011;50628;51.008;13.658;2023-04-01T15:31:09;0.53;;;0.30;;
64291;SDS011;50628;51.008;13.658;2023-04-01T15:36:23;0.50;;;0.30;;
64291;SDS011;50628;51.008;13.658;2023-04-01T15:41:40;1.97;;;0.50;;
64291;SDS011;50628;51.008;13.658;2023-04-01T15:46:50;0.30;;;0.27;;
64291;SDS011;50628;51.008;13.658;2023-04-01T15:51:56;1.03;;;0.30;;
64291;SDS011;50628;51.008;13.658;2023-04-01T16:02:31;0.40;;;0.33;;
64291;SDS011;50628;51.008;13.658;2023-04-01T16:07:41;1.70;;;0.70;;
64291;SDS011;50628;51.008;13.658;2023-04-01T16:12:53;0.60;;;0.40;;
64291;SDS011;50628;51.008;13.658;2023-04-01T16:18:08;0.63;;;0.30;;
64291;SDS011;50628;51.008;13.658;2023-04-01T16:23:24;0.90;;;0.57;;
64291;SDS011;50628;51.008;13.658;2023-04-01T16:28:31;1.57;;;0.40;;
64291;SDS011;50628;51.008;13.658;2023-04-01T16:33:40;3.17;;;1.10;;
64291;SDS011;50628;51.008;13.658;2023-04-01T16:38:52;2.37;;;0.50;;
64291;SDS011;50628;51.008;13.658;2023-04-01T16:44:09;2.00;;;0.97;;
64291;SDS011;50628;51.008;13.658;2023-04-01T16:54:42;1.73;;;0.40;;
64291;SDS011;50628;51.008;13.658;2023-04-01T16:59:54;2.93;;;0.60;;
64291;SDS011;50628;51.008;13.658;2023-04-01T17:05:02;3.30;;;0.77;;
64291;SDS011;50628;51.008;13.658;2023-04-01T17:15:45;1.10;;;0.50;;
64291;SDS011;50628;51.008;13.658;2023-04-01T17:20:54;0.70;;;0.60;;
64291;SDS011;50628;51.008;13.658;2023-04-01T17:26:05;1.47;;;0.30;;
64291;SDS011;50628;51.008;13.658;2023-04-01T17:31:22;1.17;;;0.40;;
64291;SDS011;50628;51.008;13.658;2023-04-01T17:36:37;1.03;;;0.77;;
64291;SDS011;50628;51.008;13.658;2023-04-01T17:41:53;6.23;;;3.70;;
64291;SDS011;50628;51.008;13.658;2023-04-01T17:52:30;8.20;;;4.60;;
64291;SDS011;50628;51.008;13.658;2023-04-01T17:57:45;5.47;;;3.70;;
64291;SDS011;50628;51.008;13.658;2023-04-01T18:02:56;2.60;;;2.23;;
64291;SDS011;50628;51.008;13.658;2023-04-01T18:08:15;3.40;;;2.87;;
64291;SDS011;50628;51.008;13.658;2023-04-01T18:19:19;6.87;;;4.00;;
64291;SDS011;50628;51.008;13.658;2023-04-01T18:24:32;6.73;;;5.70;;
64291;SDS011;50628;51.008;13.658;2023-04-01T18:29:44;6.27;;;5.67;;
64291;SDS011;50628;51.008;13.658;2023-04-01T18:34:54;3.40;;;2.57;;
64291;SDS011;50628;51.008;13.658;2023-04-01T18:40:04;4.87;;;4.23;;
64291;SDS011;50628;51.008;13.658;2023-04-01T18:45:17;2.93;;;1.43;;
64291;SDS011;50628;51.008;13.658;2023-04-01T18:50:25;3.27;;;1.60;;
64291;SDS011;50628;51.008;13.658;2023-04-01T18:55:35;3.97;;;3.43;;
64291;SDS011;50628;51.008;13.658;2023-04-01T19:00:43;3.57;;;3.23;;
64291;SDS011;50628;51.008;13.658;2023-04-01T19:05:53;7.63;;;6.37;;
64291;SDS011;50628;51.008;13.658;2023-04-01T19:11:01;8.40;;;6.97;;
64291;SDS011;50628;51.008;13.658;2023-04-01T19:16:12;5.73;;;4.27;;
64291;SDS011;50628;51.008;13.658;2023-04-01T19:21:25;10.60;;;5.17;;
64291;SDS011;50628;51.008;13.658;2023-04-01T19:26:30;6.53;;;3.70;;
64291;SDS011;50628;51.008;13.658;2023-04-01T19:31:41;7.20;;;6.43;;
64291;SDS011;50628;51.008;13.658;2023-04-01T19:36:55;4.60;;;4.10;;
64291;SDS011;50628;51.008;13.658;2023-04-01T19:42:01;8.40;;;6.40;;
64291;SDS011;50628;51.008;13.658;2023-04-01T19:47:12;4.30;;;3.80;;
64291;SDS011;50628;51.008;13.658;2023-04-01T19:52:22;5.13;;;3.73;;
64291;SDS011;50628;51.008;13.658;2023-04-01T19:57:34;7.43;;;4.67;;
64291;SDS011;50628;51.008;13.658;2023-04-01T20:02:49;4.87;;;3.40;;
64291;SDS011;50628;51.008;13.658;2023-04-01T20:07:59;3.93;;;3.37;;
64291;SDS011;50628;51.008;13.658;2023-04-01T20:13:08;5.53;;;3.67;;
64291;SDS011;50628;51.008;13.658;2023-04-01T20:18:20;4.90;;;4.17;;
64291;SDS011;50628;51.008;13.658;2023-04-01T20:23:38;10.07;;;5.80;;
64291;SDS011;50628;51.008;13.658;2023-04-01T20:28:43;7.03;;;6.03;;
64291;SDS011;50628;51.008;13.658;2023-04-01T20:34:02;9.10;;;6.97;;
64291;SDS011;50628;51.008;13.658;2023-04-01T20:39:18;7.33;;;5.33;;
64291;SDS011;50628;51.008;13.658;2023-04-01T20:44:33;7.77;;;5.97;;
64291;SDS011;50628;51.008;13.658;2023-04-01T20:49:40;6.93;;;6.00;;
64291;SDS011;50628;51.008;13.658;2023-04-01T20:54:53;10.10;;;7.17;;
64291;SDS011;50628;51.008;13.658;2023-04-01T21:00:19;9.07;;;7.97;;
64291;SDS011;50628;51.008;13.658;2023-04-01T21:05:35;10.83;;;8.57;;
64291;SDS011;50628;51.008;13.658;2023-04-01T21:10:56;12.27;;;9.13;;
64291;SDS011;50628;51.008;13.658;2023-04-01T21:16:12;10.83;;;8.70;;
64291;SDS011;50628;51.008;13.658;2023-04-01T21:21:27;9.70;;;8.37;;
64291;SDS011;50628;51.008;13.658;2023-04-01T21:26:47;4.80;;;3.60;;
64291;SDS011;50628;51.008;13.658;2023-04-01T21:32:06;6.43;;;3.73;;
64291;SDS011;50628;51.008;13.658;2023-04-01T21:37:29;2.83;;;2.53;;
64291;SDS011;50628;51.008;13.658;2023-04-01T21:42:44;5.17;;;3.10;;
64291;SDS011;50628;51.008;13.658;2023-04-01T21:47:57;3.50;;;3.20;;
64291;SDS011;50628;51.008;13.658;2023-04-01T22:04:43;3.93;;;3.50;;
64291;SDS011;50628;51.008;13.658;2023-04-01T22:09:56;1.87;;;1.77;;
64291;SDS011;50628;51.008;13.658;2023-04-01T22:15:08;2.83;;;2.30;;
64291;SDS011;50628;51.008;13.658;2023-04-01T22:20:21;2.40;;;2.20;;
64291;SDS011;50628;51.008;13.658;2023-04-01T22:25:30;3.63;;;3.20;;
64291;SDS011;50628;51.008;13.658;2023-04-01T22:30:39;3.70;;;3.00;;
64291;SDS011;50628;51.008;13.658;2023-04-01T22:35:47;3.97;;;3.57;;
64291;SDS011;50628;51.008;13.658;2023-04-01T22:40:55;3.23;;;3.00;;
64291;SDS011;50628;51.008;13.658;2023-04-01T22:46:10;3.53;;;3.23;;
64291;SDS011;50628;51.008;13.658;2023-04-01T22:51:38;3.30;;;2.97;;
64291;SDS011;50628;51.008;13.658;2023-04-01T22:56:46;3.60;;;3.17;;
64291;SDS011;50628;51.008;13.658;2023-04-01T23:01:53;3.83;;;3.53;;
64291;SDS011;50628;51.008;13.658;2023-04-01T23:07:00;5.67;;;3.80;;
64291;SDS011;50628;51.008;13.658;2023-04-01T23:12:05;4.27;;;3.87;;
64291;SDS011;50628;51.008;13.658;2023-04-01T23:17:15;3.60;;;3.23;;
64291;SDS011;50628;51.008;13.658;2023-04-01T23:22:37;5.27;;;4.17;;
64291;SDS011;50628;51.008;13.658;2023-04-01T23:27:49;4.50;;;3.53;;
64291;SDS011;50628;51.008;13.658;2023-04-01T23:33:02;3.53;;;3.23;;
64291;SDS011;50628;51.008;13.658;2023-04-01T23:38:13;4.00;;;3.60;;
64291;SDS011;50628;51.008;13.658;2023-04-01T23:43:17;3.63;;;3.33;;
64291;SDS011;50628;51.008;13.658;2023-04-01T23:48:26;4.80;;;3.37;;
64291;SDS011;50628;51.008;13.658;2023-04-01T23:53:32;4.07;;;3.67;;
64291;SDS011;50628;51.008;13.658;2023-04-01T23:58:38;3.80;;;3.43;;
